sensor_id;sensor_type;location;lat;lon;timestamp;temperature;humidity
44063;DHT22;29727;47.606;19.130;2023-01-09T00:00:14;10.30;78.80
44063;DHT22;29727;47.606;19.130;2023-01-09T00:02:40;10.30;78.80
44063;DHT22;29727;47.606;19.130;2023-01-09T00:05:07;10.30;78.80
44063;DHT22;29727;47.606;19.130;2023-01-09T00:07:33;10.30;78.80
44063;DHT22;29727;47.606;19.130;2023-01-09T00:09:58;10.20;78.70
44063;DHT22;29727;47.606;19.130;2023-01-09T00:12:24;10.20;78.30
44063;DHT22;29727;47.606;19.130;2023-01-09T00:14:50;10.20;78.90
44063;DHT22;29727;47.606;19.130;2023-01-09T00:17:15;10.20;78.80
44063;DHT22;29727;47.606;19.130;2023-01-09T00:19:41;10.10;78.90
44063;DHT22;29727;47.606;19.130;2023-01-09T00:22:07;10.10;79.00
44063;DHT22;29727;47.606;19.130;2023-01-09T00:24:35;10.10;78.90
44063;DHT22;29727;47.606;19.130;2023-01-09T00:27:00;10.10;78.40
44063;DHT22;29727;47.606;19.130;2023-01-09T00:29:26;10.10;79.00
44063;DHT22;29727;47.606;19.130;2023-01-09T00:31:52;10.20;79.10
44063;DHT22;29727;47.606;19.130;2023-01-09T00:34:17;10.10;78.60
44063;DHT22;29727;47.606;19.130;2023-01-09T00:36:44;10.10;79.10
44063;DHT22;29727;47.606;19.130;2023-01-09T00:39:10;10.10;79.10
44063;DHT22;29727;47.606;19.130;2023-01-09T00:41:42;10.10;79.20
44063;DHT22;29727;47.606;19.130;2023-01-09T00:44:18;10.10;79.10
44063;DHT22;29727;47.606;19.130;2023-01-09T00:46:49;10.10;79.30
44063;DHT22;29727;47.606;19.130;2023-01-09T00:49:16;10.10;78.90
44063;DHT22;29727;47.606;19.130;2023-01-09T00:51:42;10.10;78.60
44063;DHT22;29727;47.606;19.130;2023-01-09T00:54:10;10.10;78.60
44063;DHT22;29727;47.606;19.130;2023-01-09T00:56:38;10.10;78.70
44063;DHT22;29727;47.606;19.130;2023-01-09T00:59:05;10.10;78.50
44063;DHT22;29727;47.606;19.130;2023-01-09T01:01:31;10.20;78.60
44063;DHT22;29727;47.606;19.130;2023-01-09T01:03:57;10.10;78.40
44063;DHT22;29727;47.606;19.130;2023-01-09T01:06:23;10.20;78.40
44063;DHT22;29727;47.606;19.130;2023-01-09T01:09:07;10.20;78.50
44063;DHT22;29727;47.606;19.130;2023-01-09T01:11:33;10.20;78.50
44063;DHT22;29727;47.606;19.130;2023-01-09T01:13:59;10.20;78.70
44063;DHT22;29727;47.606;19.130;2023-01-09T01:16:25;10.30;78.50
44063;DHT22;29727;47.606;19.130;2023-01-09T01:18:50;10.30;77.80
44063;DHT22;29727;47.606;19.130;2023-01-09T01:21:17;10.30;78.30
44063;DHT22;29727;47.606;19.130;2023-01-09T01:23:43;10.30;78.20
44063;DHT22;29727;47.606;19.130;2023-01-09T01:26:12;10.30;77.50
44063;DHT22;29727;47.606;19.130;2023-01-09T01:28:38;10.40;78.10
44063;DHT22;29727;47.606;19.130;2023-01-09T01:31:04;10.40;77.80
44063;DHT22;29727;47.606;19.130;2023-01-09T01:33:30;10.40;78.00
44063;DHT22;29727;47.606;19.130;2023-01-09T01:36:04;10.40;77.60
44063;DHT22;29727;47.606;19.130;2023-01-09T01:38:31;10.40;77.60
44063;DHT22;29727;47.606;19.130;2023-01-09T01:40:56;10.40;77.60
44063;DHT22;29727;47.606;19.130;2023-01-09T01:43:23;10.40;77.50
44063;DHT22;29727;47.606;19.130;2023-01-09T01:45:48;10.50;76.90
44063;DHT22;29727;47.606;19.130;2023-01-09T01:48:19;10.40;77.40
44063;DHT22;29727;47.606;19.130;2023-01-09T01:51:12;10.50;77.00
44063;DHT22;29727;47.606;19.130;2023-01-09T01:53:43;10.50;77.20
44063;DHT22;29727;47.606;19.130;2023-01-09T01:59:17;10.50;77.10
44063;DHT22;29727;47.606;19.130;2023-01-09T02:01:48;10.50;76.90
44063;DHT22;29727;47.606;19.130;2023-01-09T02:04:14;10.50;77.10
44063;DHT22;29727;47.606;19.130;2023-01-09T02:06:41;10.50;77.20
44063;DHT22;29727;47.606;19.130;2023-01-09T02:09:08;10.50;76.60
44063;DHT22;29727;47.606;19.130;2023-01-09T02:11:46;10.50;76.60
44063;DHT22;29727;47.606;19.130;2023-01-09T02:14:13;10.50;76.80
44063;DHT22;29727;47.606;19.130;2023-01-09T02:16:53;10.60;76.80
44063;DHT22;29727;47.606;19.130;2023-01-09T02:25:20;10.60;76.80
44063;DHT22;29727;47.606;19.130;2023-01-09T02:30:56;10.60;76.80
44063;DHT22;29727;47.606;19.130;2023-01-09T02:41:35;10.70;77.40
44063;DHT22;29727;47.606;19.130;2023-01-09T02:44:25;10.70;77.50
44063;DHT22;29727;47.606;19.130;2023-01-09T02:47:32;10.70;77.70
44063;DHT22;29727;47.606;19.130;2023-01-09T02:49:55;10.70;78.50
44063;DHT22;29727;47.606;19.130;2023-01-09T02:55:33;10.70;78.20
44063;DHT22;29727;47.606;19.130;2023-01-09T02:58:08;10.60;78.40
44063;DHT22;29727;47.606;19.130;2023-01-09T03:00:56;10.60;78.50
44063;DHT22;29727;47.606;19.130;2023-01-09T03:08:57;10.50;79.00
44063;DHT22;29727;47.606;19.130;2023-01-09T03:11:27;10.60;79.20
44063;DHT22;29727;47.606;19.130;2023-01-09T03:13:58;10.50;79.30
44063;DHT22;29727;47.606;19.130;2023-01-09T03:16:35;10.50;79.50
44063;DHT22;29727;47.606;19.130;2023-01-09T03:19:04;10.50;79.60
44063;DHT22;29727;47.606;19.130;2023-01-09T03:21:31;10.50;79.90
44063;DHT22;29727;47.606;19.130;2023-01-09T03:23:59;10.50;80.10
44063;DHT22;29727;47.606;19.130;2023-01-09T03:26:25;10.50;79.80
44063;DHT22;29727;47.606;19.130;2023-01-09T03:28:54;10.50;80.30
44063;DHT22;29727;47.606;19.130;2023-01-09T03:31:21;10.40;80.50
44063;DHT22;29727;47.606;19.130;2023-01-09T03:33:47;10.40;80.50
44063;DHT22;29727;47.606;19.130;2023-01-09T03:36:15;10.40;80.70
44063;DHT22;29727;47.606;19.130;2023-01-09T03:38:40;10.40;80.70
44063;DHT22;29727;47.606;19.130;2023-01-09T03:41:06;10.40;80.70
44063;DHT22;29727;47.606;19.130;2023-01-09T03:43:32;10.40;80.90
44063;DHT22;29727;47.606;19.130;2023-01-09T03:45:58;10.40;80.80
44063;DHT22;29727;47.606;19.130;2023-01-09T03:48:24;10.40;80.80
44063;DHT22;29727;47.606;19.130;2023-01-09T03:50:51;10.40;80.80
44063;DHT22;29727;47.606;19.130;2023-01-09T03:53:18;10.40;80.80
44063;DHT22;29727;47.606;19.130;2023-01-09T03:55:52;10.40;80.80
44063;DHT22;29727;47.606;19.130;2023-01-09T03:58:18;10.40;80.90
44063;DHT22;29727;47.606;19.130;2023-01-09T04:00:45;10.40;80.80
44063;DHT22;29727;47.606;19.130;2023-01-09T04:03:15;10.40;80.80
44063;DHT22;29727;47.606;19.130;2023-01-09T04:05:42;10.40;80.80
44063;DHT22;29727;47.606;19.130;2023-01-09T04:08:08;10.40;80.80
44063;DHT22;29727;47.606;19.130;2023-01-09T04:10:34;10.40;80.80
44063;DHT22;29727;47.606;19.130;2023-01-09T04:13:00;10.40;80.70
44063;DHT22;29727;47.606;19.130;2023-01-09T04:15:25;10.40;80.80
44063;DHT22;29727;47.606;19.130;2023-01-09T04:17:51;10.40;80.60
44063;DHT22;29727;47.606;19.130;2023-01-09T04:20:17;10.40;80.60
44063;DHT22;29727;47.606;19.130;2023-01-09T04:22:43;10.40;80.60
44063;DHT22;29727;47.606;19.130;2023-01-09T04:25:09;10.40;80.30
44063;DHT22;29727;47.606;19.130;2023-01-09T04:27:35;10.40;79.60
44063;DHT22;29727;47.606;19.130;2023-01-09T04:30:00;10.40;80.40
44063;DHT22;29727;47.606;19.130;2023-01-09T04:32:26;10.40;80.30
44063;DHT22;29727;47.606;19.130;2023-01-09T04:34:55;10.40;80.20
44063;DHT22;29727;47.606;19.130;2023-01-09T04:37:21;10.40;80.50
44063;DHT22;29727;47.606;19.130;2023-01-09T04:39:47;10.40;80.40
44063;DHT22;29727;47.606;19.130;2023-01-09T04:42:14;10.40;80.40
44063;DHT22;29727;47.606;19.130;2023-01-09T04:44:39;10.40;80.50
44063;DHT22;29727;47.606;19.130;2023-01-09T04:47:05;10.40;80.50
44063;DHT22;29727;47.606;19.130;2023-01-09T04:49:31;10.40;80.40
44063;DHT22;29727;47.606;19.130;2023-01-09T04:51:57;10.40;80.40
44063;DHT22;29727;47.606;19.130;2023-01-09T04:54:22;10.40;80.40
44063;DHT22;29727;47.606;19.130;2023-01-09T04:56:48;10.40;80.40
44063;DHT22;29727;47.606;19.130;2023-01-09T04:59:14;10.40;80.20
44063;DHT22;29727;47.606;19.130;2023-01-09T05:01:39;10.40;80.10
44063;DHT22;29727;47.606;19.130;2023-01-09T05:04:05;10.40;80.20
44063;DHT22;29727;47.606;19.130;2023-01-09T05:06:31;10.40;80.20
44063;DHT22;29727;47.606;19.130;2023-01-09T05:08:59;10.40;80.50
44063;DHT22;29727;47.606;19.130;2023-01-09T05:11:25;10.40;80.30
44063;DHT22;29727;47.606;19.130;2023-01-09T05:13:51;10.40;80.40
44063;DHT22;29727;47.606;19.130;2023-01-09T05:16:17;10.40;80.50
44063;DHT22;29727;47.606;19.130;2023-01-09T05:18:43;10.40;80.60
44063;DHT22;29727;47.606;19.130;2023-01-09T05:21:09;10.40;80.60
44063;DHT22;29727;47.606;19.130;2023-01-09T05:23:35;10.40;80.50
44063;DHT22;29727;47.606;19.130;2023-01-09T05:26:01;10.40;80.00
44063;DHT22;29727;47.606;19.130;2023-01-09T05:28:29;10.40;80.90
44063;DHT22;29727;47.606;19.130;2023-01-09T05:30:55;10.40;80.50
44063;DHT22;29727;47.606;19.130;2023-01-09T05:33:20;10.40;80.60
44063;DHT22;29727;47.606;19.130;2023-01-09T05:35:46;10.40;80.60
44063;DHT22;29727;47.606;19.130;2023-01-09T05:38:12;10.40;80.70
44063;DHT22;29727;47.606;19.130;2023-01-09T05:40:37;10.40;80.70
44063;DHT22;29727;47.606;19.130;2023-01-09T05:43:03;10.40;80.40
44063;DHT22;29727;47.606;19.130;2023-01-09T05:45:29;10.40;80.10
44063;DHT22;29727;47.606;19.130;2023-01-09T05:47:55;10.40;80.20
44063;DHT22;29727;47.606;19.130;2023-01-09T05:50:20;10.40;80.30
44063;DHT22;29727;47.606;19.130;2023-01-09T05:52:46;10.40;80.40
44063;DHT22;29727;47.606;19.130;2023-01-09T05:55:12;10.40;80.00
44063;DHT22;29727;47.606;19.130;2023-01-09T05:57:38;10.40;80.50
44063;DHT22;29727;47.606;19.130;2023-01-09T06:00:04;10.40;80.00
44063;DHT22;29727;47.606;19.130;2023-01-09T06:02:30;10.40;79.80
44063;DHT22;29727;47.606;19.130;2023-01-09T06:04:55;10.40;79.90
44063;DHT22;29727;47.606;19.130;2023-01-09T06:07:21;10.40;80.20
44063;DHT22;29727;47.606;19.130;2023-01-09T06:09:46;10.40;80.30
44063;DHT22;29727;47.606;19.130;2023-01-09T06:12:12;10.40;80.40
44063;DHT22;29727;47.606;19.130;2023-01-09T06:14:38;10.30;80.50
44063;DHT22;29727;47.606;19.130;2023-01-09T06:17:03;10.40;80.40
44063;DHT22;29727;47.606;19.130;2023-01-09T06:19:29;10.40;80.20
44063;DHT22;29727;47.606;19.130;2023-01-09T06:21:55;10.40;80.40
44063;DHT22;29727;47.606;19.130;2023-01-09T06:24:21;10.40;80.40
44063;DHT22;29727;47.606;19.130;2023-01-09T06:26:46;10.30;79.50
44063;DHT22;29727;47.606;19.130;2023-01-09T06:29:12;10.30;80.10
44063;DHT22;29727;47.606;19.130;2023-01-09T06:31:38;10.40;80.30
44063;DHT22;29727;47.606;19.130;2023-01-09T06:34:03;10.40;80.30
44063;DHT22;29727;47.606;19.130;2023-01-09T06:36:29;10.40;80.10
44063;DHT22;29727;47.606;19.130;2023-01-09T06:38:55;10.40;80.00
44063;DHT22;29727;47.606;19.130;2023-01-09T06:41:20;10.40;79.90
44063;DHT22;29727;47.606;19.130;2023-01-09T06:43:46;10.40;80.00
44063;DHT22;29727;47.606;19.130;2023-01-09T06:46:11;10.40;80.00
44063;DHT22;29727;47.606;19.130;2023-01-09T06:48:37;10.40;80.00
44063;DHT22;29727;47.606;19.130;2023-01-09T06:51:03;10.40;80.10
44063;DHT22;29727;47.606;19.130;2023-01-09T06:53:29;10.40;80.20
44063;DHT22;29727;47.606;19.130;2023-01-09T06:55:54;10.40;80.60
44063;DHT22;29727;47.606;19.130;2023-01-09T06:58:20;10.40;80.10
44063;DHT22;29727;47.606;19.130;2023-01-09T07:00:46;10.40;80.20
44063;DHT22;29727;47.606;19.130;2023-01-09T07:03:14;10.50;79.90
44063;DHT22;29727;47.606;19.130;2023-01-09T07:05:44;10.40;79.70
44063;DHT22;29727;47.606;19.130;2023-01-09T07:08:10;10.40;79.90
44063;DHT22;29727;47.606;19.130;2023-01-09T07:10:36;10.40;79.80
44063;DHT22;29727;47.606;19.130;2023-01-09T07:13:02;10.40;80.10
44063;DHT22;29727;47.606;19.130;2023-01-09T07:15:27;10.40;80.10
44063;DHT22;29727;47.606;19.130;2023-01-09T07:17:53;10.40;80.00
44063;DHT22;29727;47.606;19.130;2023-01-09T07:20:19;10.40;80.30
44063;DHT22;29727;47.606;19.130;2023-01-09T07:22:47;10.40;80.20
44063;DHT22;29727;47.606;19.130;2023-01-09T07:25:13;10.40;79.00
44063;DHT22;29727;47.606;19.130;2023-01-09T07:27:38;10.40;79.50
44063;DHT22;29727;47.606;19.130;2023-01-09T07:30:05;10.40;79.40
44063;DHT22;29727;47.606;19.130;2023-01-09T07:32:31;10.30;79.80
44063;DHT22;29727;47.606;19.130;2023-01-09T07:34:57;10.30;80.00
44063;DHT22;29727;47.606;19.130;2023-01-09T07:37:23;10.30;80.10
44063;DHT22;29727;47.606;19.130;2023-01-09T07:39:49;10.20;80.20
44063;DHT22;29727;47.606;19.130;2023-01-09T07:42:15;10.20;80.00
44063;DHT22;29727;47.606;19.130;2023-01-09T07:44:41;10.20;80.30
44063;DHT22;29727;47.606;19.130;2023-01-09T07:47:07;10.10;80.00
44063;DHT22;29727;47.606;19.130;2023-01-09T07:49:32;10.10;79.70
44063;DHT22;29727;47.606;19.130;2023-01-09T07:51:58;10.10;80.10
44063;DHT22;29727;47.606;19.130;2023-01-09T07:54:24;10.00;80.00
44063;DHT22;29727;47.606;19.130;2023-01-09T07:56:49;10.00;80.30
44063;DHT22;29727;47.606;19.130;2023-01-09T07:59:15;10.00;80.30
44063;DHT22;29727;47.606;19.130;2023-01-09T08:01:41;10.00;80.70
44063;DHT22;29727;47.606;19.130;2023-01-09T08:04:06;10.10;80.60
44063;DHT22;29727;47.606;19.130;2023-01-09T08:06:32;10.10;80.30
44063;DHT22;29727;47.606;19.130;2023-01-09T08:09:00;10.10;80.30
44063;DHT22;29727;47.606;19.130;2023-01-09T08:11:26;10.10;79.90
44063;DHT22;29727;47.606;19.130;2023-01-09T08:13:52;10.20;79.30
44063;DHT22;29727;47.606;19.130;2023-01-09T08:16:17;10.20;79.10
44063;DHT22;29727;47.606;19.130;2023-01-09T08:18:43;10.20;79.00
44063;DHT22;29727;47.606;19.130;2023-01-09T08:21:09;10.20;79.50
44063;DHT22;29727;47.606;19.130;2023-01-09T08:23:38;10.20;79.70
44063;DHT22;29727;47.606;19.130;2023-01-09T08:26:05;10.20;79.00
44063;DHT22;29727;47.606;19.130;2023-01-09T08:28:31;10.20;79.50
44063;DHT22;29727;47.606;19.130;2023-01-09T08:30:57;10.20;79.30
44063;DHT22;29727;47.606;19.130;2023-01-09T08:33:22;10.20;79.30
44063;DHT22;29727;47.606;19.130;2023-01-09T08:35:48;10.20;79.50
44063;DHT22;29727;47.606;19.130;2023-01-09T08:38:14;10.10;79.80
44063;DHT22;29727;47.606;19.130;2023-01-09T08:40:39;10.20;80.00
44063;DHT22;29727;47.606;19.130;2023-01-09T08:43:05;10.10;80.40
44063;DHT22;29727;47.606;19.130;2023-01-09T08:45:49;10.10;81.10
44063;DHT22;29727;47.606;19.130;2023-01-09T08:48:33;10.00;81.20
44063;DHT22;29727;47.606;19.130;2023-01-09T08:50:59;10.00;80.90
44063;DHT22;29727;47.606;19.130;2023-01-09T08:53:25;10.00;81.40
44063;DHT22;29727;47.606;19.130;2023-01-09T08:55:50;10.00;81.90
44063;DHT22;29727;47.606;19.130;2023-01-09T08:58:16;9.90;82.10
44063;DHT22;29727;47.606;19.130;2023-01-09T09:00:41;9.90;82.40
44063;DHT22;29727;47.606;19.130;2023-01-09T09:03:08;9.90;82.90
44063;DHT22;29727;47.606;19.130;2023-01-09T09:05:34;9.90;83.10
44063;DHT22;29727;47.606;19.130;2023-01-09T09:07:59;9.90;82.70
44063;DHT22;29727;47.606;19.130;2023-01-09T09:10:28;9.90;82.90
44063;DHT22;29727;47.606;19.130;2023-01-09T09:12:55;9.90;83.70
44063;DHT22;29727;47.606;19.130;2023-01-09T09:15:22;9.90;82.80
44063;DHT22;29727;47.606;19.130;2023-01-09T09:18:00;10.00;83.50
44063;DHT22;29727;47.606;19.130;2023-01-09T09:20:29;10.00;82.90
44063;DHT22;29727;47.606;19.130;2023-01-09T09:22:55;10.00;82.60
44063;DHT22;29727;47.606;19.130;2023-01-09T09:25:21;10.00;81.90
44063;DHT22;29727;47.606;19.130;2023-01-09T09:27:47;10.00;82.10
44063;DHT22;29727;47.606;19.130;2023-01-09T09:30:15;10.00;82.20
44063;DHT22;29727;47.606;19.130;2023-01-09T09:32:43;10.00;82.40
44063;DHT22;29727;47.606;19.130;2023-01-09T09:35:09;9.90;82.90
44063;DHT22;29727;47.606;19.130;2023-01-09T09:37:35;9.90;82.90
44063;DHT22;29727;47.606;19.130;2023-01-09T09:40:05;9.90;82.90
44063;DHT22;29727;47.606;19.130;2023-01-09T09:42:57;9.90;83.10
44063;DHT22;29727;47.606;19.130;2023-01-09T09:46:06;9.90;84.10
44063;DHT22;29727;47.606;19.130;2023-01-09T09:48:40;9.90;83.40
44063;DHT22;29727;47.606;19.130;2023-01-09T09:54:19;9.80;82.60
44063;DHT22;29727;47.606;19.130;2023-01-09T09:56:54;9.80;83.30
44063;DHT22;29727;47.606;19.130;2023-01-09T09:59:23;9.70;83.50
44063;DHT22;29727;47.606;19.130;2023-01-09T10:02:02;9.70;84.00
44063;DHT22;29727;47.606;19.130;2023-01-09T10:04:32;9.70;84.10
44063;DHT22;29727;47.606;19.130;2023-01-09T10:07:07;9.80;84.00
44063;DHT22;29727;47.606;19.130;2023-01-09T10:09:45;9.70;84.00
44063;DHT22;29727;47.606;19.130;2023-01-09T10:12:49;9.70;84.10
44063;DHT22;29727;47.606;19.130;2023-01-09T10:15:28;9.70;84.50
44063;DHT22;29727;47.606;19.130;2023-01-09T10:26:40;9.70;84.40
44063;DHT22;29727;47.606;19.130;2023-01-09T10:37:39;9.70;85.60
44063;DHT22;29727;47.606;19.130;2023-01-09T10:42:54;9.70;85.10
44063;DHT22;29727;47.606;19.130;2023-01-09T10:45:28;9.80;85.60
44063;DHT22;29727;47.606;19.130;2023-01-09T10:48:04;9.80;84.60
44063;DHT22;29727;47.606;19.130;2023-01-09T10:50:33;9.80;84.60
44063;DHT22;29727;47.606;19.130;2023-01-09T10:53:08;9.80;84.50
44063;DHT22;29727;47.606;19.130;2023-01-09T10:55:41;9.70;84.10
44063;DHT22;29727;47.606;19.130;2023-01-09T10:58:14;9.70;84.50
44063;DHT22;29727;47.606;19.130;2023-01-09T11:00:41;9.70;84.90
44063;DHT22;29727;47.606;19.130;2023-01-09T11:03:21;9.60;84.90
44063;DHT22;29727;47.606;19.130;2023-01-09T11:05:51;9.60;85.20
44063;DHT22;29727;47.606;19.130;2023-01-09T11:08:38;9.60;85.30
44063;DHT22;29727;47.606;19.130;2023-01-09T11:11:08;9.60;85.50
44063;DHT22;29727;47.606;19.130;2023-01-09T11:13:36;9.60;85.80
44063;DHT22;29727;47.606;19.130;2023-01-09T11:16:22;9.70;85.60
44063;DHT22;29727;47.606;19.130;2023-01-09T11:18:53;9.70;85.40
44063;DHT22;29727;47.606;19.130;2023-01-09T11:21:36;9.70;85.30
44063;DHT22;29727;47.606;19.130;2023-01-09T11:26:50;9.70;84.20
44063;DHT22;29727;47.606;19.130;2023-01-09T11:29:20;9.70;85.10
44063;DHT22;29727;47.606;19.130;2023-01-09T11:31:59;9.70;85.30
44063;DHT22;29727;47.606;19.130;2023-01-09T11:34:29;9.70;85.70
44063;DHT22;29727;47.606;19.130;2023-01-09T11:37:10;9.70;85.40
44063;DHT22;29727;47.606;19.130;2023-01-09T11:39:39;9.70;85.50
44063;DHT22;29727;47.606;19.130;2023-01-09T11:42:22;9.70;85.60
44063;DHT22;29727;47.606;19.130;2023-01-09T11:45:20;9.70;86.10
44063;DHT22;29727;47.606;19.130;2023-01-09T11:47:46;9.70;86.00
44063;DHT22;29727;47.606;19.130;2023-01-09T11:50:29;9.70;86.00
44063;DHT22;29727;47.606;19.130;2023-01-09T11:53:14;9.70;85.70
44063;DHT22;29727;47.606;19.130;2023-01-09T11:55:41;9.70;85.50
44063;DHT22;29727;47.606;19.130;2023-01-09T11:58:19;9.70;86.00
44063;DHT22;29727;47.606;19.130;2023-01-09T12:03:53;9.70;85.70
44063;DHT22;29727;47.606;19.130;2023-01-09T12:09:45;9.70;86.20
44063;DHT22;29727;47.606;19.130;2023-01-09T12:26:21;9.90;85.70
44063;DHT22;29727;47.606;19.130;2023-01-09T12:47:45;10.00;85.40
44063;DHT22;29727;47.606;19.130;2023-01-09T12:53:17;10.00;84.90
44063;DHT22;29727;47.606;19.130;2023-01-09T12:56:02;10.00;84.90
44063;DHT22;29727;47.606;19.130;2023-01-09T12:58:38;10.10;84.80
44063;DHT22;29727;47.606;19.130;2023-01-09T13:01:10;10.00;85.00
44063;DHT22;29727;47.606;19.130;2023-01-09T13:06:14;10.00;85.50
44063;DHT22;29727;47.606;19.130;2023-01-09T13:11:34;10.00;85.50
44063;DHT22;29727;47.606;19.130;2023-01-09T13:14:12;10.10;85.50
44063;DHT22;29727;47.606;19.130;2023-01-09T13:16:43;10.10;85.40
44063;DHT22;29727;47.606;19.130;2023-01-09T13:19:19;10.10;85.40
44063;DHT22;29727;47.606;19.130;2023-01-09T13:21:47;10.10;85.20
44063;DHT22;29727;47.606;19.130;2023-01-09T13:27:24;10.10;84.70
44063;DHT22;29727;47.606;19.130;2023-01-09T13:29:53;10.10;84.70
44063;DHT22;29727;47.606;19.130;2023-01-09T13:34:53;10.10;84.50
44063;DHT22;29727;47.606;19.130;2023-01-09T13:37:26;10.20;84.50
44063;DHT22;29727;47.606;19.130;2023-01-09T13:40:05;10.20;84.50
44063;DHT22;29727;47.606;19.130;2023-01-09T13:42:31;10.20;84.40
44063;DHT22;29727;47.606;19.130;2023-01-09T13:45:10;10.10;84.40
44063;DHT22;29727;47.606;19.130;2023-01-09T13:47:36;10.20;84.40
44063;DHT22;29727;47.606;19.130;2023-01-09T13:52:41;10.20;84.40
44063;DHT22;29727;47.606;19.130;2023-01-09T14:08:14;10.20;83.90
44063;DHT22;29727;47.606;19.130;2023-01-09T14:10:54;10.20;83.90
44063;DHT22;29727;47.606;19.130;2023-01-09T14:13:42;10.20;83.60
44063;DHT22;29727;47.606;19.130;2023-01-09T14:16:21;10.20;84.00
44063;DHT22;29727;47.606;19.130;2023-01-09T14:21:46;10.10;84.10
44063;DHT22;29727;47.606;19.130;2023-01-09T14:27:03;10.00;85.60
44063;DHT22;29727;47.606;19.130;2023-01-09T14:29:35;10.00;86.10
44063;DHT22;29727;47.606;19.130;2023-01-09T14:35:02;10.00;85.30
44063;DHT22;29727;47.606;19.130;2023-01-09T14:37:32;9.90;85.60
44063;DHT22;29727;47.606;19.130;2023-01-09T14:39:58;9.90;85.30
44063;DHT22;29727;47.606;19.130;2023-01-09T14:42:27;9.90;85.80
44063;DHT22;29727;47.606;19.130;2023-01-09T14:50:24;9.80;86.60
44063;DHT22;29727;47.606;19.130;2023-01-09T14:53:12;9.80;86.40
44063;DHT22;29727;47.606;19.130;2023-01-09T14:58:34;9.90;86.90
44063;DHT22;29727;47.606;19.130;2023-01-09T15:03:51;10.00;86.20
44063;DHT22;29727;47.606;19.130;2023-01-09T15:06:23;10.00;85.80
44063;DHT22;29727;47.606;19.130;2023-01-09T15:09:13;10.00;85.00
44063;DHT22;29727;47.606;19.130;2023-01-09T15:11:42;9.90;84.60
44063;DHT22;29727;47.606;19.130;2023-01-09T15:14:31;9.90;85.20
44063;DHT22;29727;47.606;19.130;2023-01-09T15:16:58;9.90;85.30
44063;DHT22;29727;47.606;19.130;2023-01-09T15:19:24;9.80;85.70
44063;DHT22;29727;47.606;19.130;2023-01-09T15:24:26;9.60;86.70
44063;DHT22;29727;47.606;19.130;2023-01-09T15:26:56;9.40;86.70
44063;DHT22;29727;47.606;19.130;2023-01-09T15:29:23;9.30;87.60
44063;DHT22;29727;47.606;19.130;2023-01-09T15:31:54;9.20;88.10
44063;DHT22;29727;47.606;19.130;2023-01-09T15:34:23;9.20;89.00
44063;DHT22;29727;47.606;19.130;2023-01-09T15:36:50;9.10;89.40
44063;DHT22;29727;47.606;19.130;2023-01-09T15:39:27;9.10;89.80
44063;DHT22;29727;47.606;19.130;2023-01-09T15:41:54;9.10;88.90
44063;DHT22;29727;47.606;19.130;2023-01-09T15:44:41;9.10;88.70
44063;DHT22;29727;47.606;19.130;2023-01-09T15:47:14;9.00;89.40
44063;DHT22;29727;47.606;19.130;2023-01-09T15:49:41;9.00;89.30
44063;DHT22;29727;47.606;19.130;2023-01-09T15:52:11;9.00;89.60
44063;DHT22;29727;47.606;19.130;2023-01-09T15:54:40;9.00;89.70
44063;DHT22;29727;47.606;19.130;2023-01-09T15:59:54;9.00;90.00
44063;DHT22;29727;47.606;19.130;2023-01-09T16:02:21;9.10;90.10
44063;DHT22;29727;47.606;19.130;2023-01-09T16:05:08;9.10;90.10
44063;DHT22;29727;47.606;19.130;2023-01-09T16:07:44;9.20;90.00
44063;DHT22;29727;47.606;19.130;2023-01-09T16:10:23;9.20;89.80
44063;DHT22;29727;47.606;19.130;2023-01-09T16:12:51;9.30;89.80
44063;DHT22;29727;47.606;19.130;2023-01-09T16:15:18;9.30;90.10
44063;DHT22;29727;47.606;19.130;2023-01-09T16:20:38;9.40;89.40
44063;DHT22;29727;47.606;19.130;2023-01-09T16:28:30;9.50;89.10
44063;DHT22;29727;47.606;19.130;2023-01-09T16:31:04;9.60;89.00
44063;DHT22;29727;47.606;19.130;2023-01-09T16:33:33;9.60;88.40
44063;DHT22;29727;47.606;19.130;2023-01-09T16:35:59;9.60;87.80
44063;DHT22;29727;47.606;19.130;2023-01-09T16:38:26;10.40;88.20
44063;DHT22;29727;47.606;19.130;2023-01-09T16:40:58;9.70;87.80
44063;DHT22;29727;47.606;19.130;2023-01-09T16:43:43;9.70;87.80
44063;DHT22;29727;47.606;19.130;2023-01-09T16:46:10;9.70;87.70
44063;DHT22;29727;47.606;19.130;2023-01-09T16:48:37;9.80;87.70
44063;DHT22;29727;47.606;19.130;2023-01-09T16:51:04;9.80;87.60
44063;DHT22;29727;47.606;19.130;2023-01-09T16:53:30;9.80;87.60
44063;DHT22;29727;47.606;19.130;2023-01-09T16:55:57;9.80;87.40
44063;DHT22;29727;47.606;19.130;2023-01-09T16:58:29;9.80;87.30
44063;DHT22;29727;47.606;19.130;2023-01-09T17:00:56;9.90;87.30
44063;DHT22;29727;47.606;19.130;2023-01-09T17:03:22;9.90;87.00
44063;DHT22;29727;47.606;19.130;2023-01-09T17:05:51;9.90;86.60
44063;DHT22;29727;47.606;19.130;2023-01-09T17:08:24;9.90;86.40
44063;DHT22;29727;47.606;19.130;2023-01-09T17:10:51;9.90;86.20
44063;DHT22;29727;47.606;19.130;2023-01-09T17:13:16;9.90;85.30
44063;DHT22;29727;47.606;19.130;2023-01-09T17:15:43;9.90;86.10
44063;DHT22;29727;47.606;19.130;2023-01-09T17:18:20;9.90;85.60
44063;DHT22;29727;47.606;19.130;2023-01-09T17:20:48;9.90;85.90
44063;DHT22;29727;47.606;19.130;2023-01-09T17:23:14;9.90;86.10
44063;DHT22;29727;47.606;19.130;2023-01-09T17:25:40;9.90;85.70
44063;DHT22;29727;47.606;19.130;2023-01-09T17:28:25;9.90;86.20
44063;DHT22;29727;47.606;19.130;2023-01-09T17:31:08;9.90;86.20
44063;DHT22;29727;47.606;19.130;2023-01-09T17:33:35;9.90;86.40
44063;DHT22;29727;47.606;19.130;2023-01-09T17:36:02;9.90;86.20
44063;DHT22;29727;47.606;19.130;2023-01-09T17:38:29;10.00;86.20
44063;DHT22;29727;47.606;19.130;2023-01-09T17:40:55;10.00;86.20
44063;DHT22;29727;47.606;19.130;2023-01-09T17:43:21;9.90;86.00
44063;DHT22;29727;47.606;19.130;2023-01-09T17:45:47;10.00;85.50
44063;DHT22;29727;47.606;19.130;2023-01-09T17:48:20;10.00;84.90
44063;DHT22;29727;47.606;19.130;2023-01-09T17:50:47;10.00;85.10
44063;DHT22;29727;47.606;19.130;2023-01-09T17:53:13;10.00;85.40
44063;DHT22;29727;47.606;19.130;2023-01-09T17:55:40;10.00;85.20
44063;DHT22;29727;47.606;19.130;2023-01-09T17:58:06;10.00;85.20
44063;DHT22;29727;47.606;19.130;2023-01-09T18:00:34;9.90;85.20
44063;DHT22;29727;47.606;19.130;2023-01-09T18:03:02;9.90;85.40
44063;DHT22;29727;47.606;19.130;2023-01-09T18:05:31;9.90;85.80
44063;DHT22;29727;47.606;19.130;2023-01-09T18:07:57;9.80;85.60
44063;DHT22;29727;47.606;19.130;2023-01-09T18:10:26;9.80;85.80